Farr West, Utah
Current Conditions -  °F | °C
As of 7:53 PM on Wednesday 26 Nov 2014 (Local Time) from KOGD Reporting Station
Clear Clear  
Wind Chill: 38°   Ceiling: Unl
Heat Index: 44°   Visibility: 10mi
Dew Point: 29°   Wind: 12mph
Humidity: 55%   Direction: 170°S
Pressure: 30.34"   Gusts: NA
Location:  41.2701°N, 112.135°W
Report Text: KOGD 270253Z AUTO 17010KT 10SM CLR 07/M02 A3034 RMK AO2 SLP271 T00671017 58002 TSNO
Loading
Personal Weather Stations






























Interactive Weather Map New forecast layout! Learn more

10-Day Weather Forecast

Advertisements
Track Severe Weather on mobile